sensor_id;sensor_type;location;lat;lon;timestamp;pressure;altitude;pressure_sealevel;temperature;humidity
74045;BME280;62389;51.412;5.436;2022-12-18T00:00:46;102752.72;;;-5.42;85.84
74045;BME280;62389;51.412;5.436;2022-12-18T00:03:15;102751.50;;;-5.49;85.68
74045;BME280;62389;51.412;5.436;2022-12-18T00:05:48;102745.53;;;-5.49;86.59
74045;BME280;62389;51.412;5.436;2022-12-18T00:08:14;102749.94;;;-5.47;86.89
74045;BME280;62389;51.412;5.436;2022-12-18T00:10:39;102741.56;;;-5.44;86.53
74045;BME280;62389;51.412;5.436;2022-12-18T00:13:05;102740.03;;;-5.40;85.80
74045;BME280;62389;51.412;5.436;2022-12-18T00:15:30;102747.75;;;-5.39;86.00
74045;BME280;62389;51.412;5.436;2022-12-18T00:17:58;102746.03;;;-5.40;85.97
74045;BME280;62389;51.412;5.436;2022-12-18T00:20:23;102752.00;;;-5.39;86.21
74045;BME280;62389;51.412;5.436;2022-12-18T00:22:51;102746.03;;;-5.40;85.71
74045;BME280;62389;51.412;5.436;2022-12-18T00:25:17;102735.81;;;-5.40;85.99
74045;BME280;62389;51.412;5.436;2022-12-18T00:27:42;102724.56;;;-5.43;85.45
74045;BME280;62389;51.412;5.436;2022-12-18T00:30:08;102714.22;;;-5.47;84.83
74045;BME280;62389;51.412;5.436;2022-12-18T00:32:34;102719.91;;;-5.52;85.54
74045;BME280;62389;51.412;5.436;2022-12-18T00:34:59;102715.50;;;-5.55;85.51
74045;BME280;62389;51.412;5.436;2022-12-18T00:37:24;102715.50;;;-5.55;85.70
74045;BME280;62389;51.412;5.436;2022-12-18T00:39:49;102703.56;;;-5.56;86.17
74045;BME280;62389;51.412;5.436;2022-12-18T00:42:15;102714.63;;;-5.55;85.44
74045;BME280;62389;51.412;5.436;2022-12-18T00:44:59;102712.72;;;-5.59;85.94
74045;BME280;62389;51.412;5.436;2022-12-18T00:47:24;102708.25;;;-5.63;84.77
74045;BME280;62389;51.412;5.436;2022-12-18T00:49:49;102707.69;;;-5.74;85.34
74045;BME280;62389;51.412;5.436;2022-12-18T00:52:15;102714.75;;;-5.85;85.33
74045;BME280;62389;51.412;5.436;2022-12-18T00:54:40;102706.88;;;-5.89;85.50
74045;BME280;62389;51.412;5.436;2022-12-18T00:57:05;102710.41;;;-5.87;86.13
74045;BME280;62389;51.412;5.436;2022-12-18T00:59:31;102702.81;;;-5.86;86.47
74045;BME280;62389;51.412;5.436;2022-12-18T01:01:56;102700.34;;;-5.84;85.81
74045;BME280;62389;51.412;5.436;2022-12-18T01:04:21;102706.06;;;-5.88;85.77
74045;BME280;62389;51.412;5.436;2022-12-18T01:06:47;102717.88;;;-5.90;85.12
74045;BME280;62389;51.412;5.436;2022-12-18T01:09:12;102718.75;;;-5.90;85.92
74045;BME280;62389;51.412;5.436;2022-12-18T01:11:38;102719.69;;;-5.88;85.30
74045;BME280;62389;51.412;5.436;2022-12-18T01:14:03;102723.84;;;-5.90;85.08
74045;BME280;62389;51.412;5.436;2022-12-18T01:16:29;102731.34;;;-5.93;85.09
74045;BME280;62389;51.412;5.436;2022-12-18T01:18:54;102728.72;;;-5.94;84.80
74045;BME280;62389;51.412;5.436;2022-12-18T01:21:20;102731.09;;;-5.97;84.68
74045;BME280;62389;51.412;5.436;2022-12-18T01:23:46;102735.16;;;-6.01;85.18
74045;BME280;62389;51.412;5.436;2022-12-18T01:26:16;102730.69;;;-6.05;85.20
74045;BME280;62389;51.412;5.436;2022-12-18T01:28:42;102724.72;;;-6.06;85.39
74045;BME280;62389;51.412;5.436;2022-12-18T01:31:26;102729.81;;;-6.06;85.56
74045;BME280;62389;51.412;5.436;2022-12-18T01:33:52;102721.13;;;-6.09;85.38
74045;BME280;62389;51.412;5.436;2022-12-18T01:36:24;102727.88;;;-6.10;85.64
74045;BME280;62389;51.412;5.436;2022-12-18T01:38:51;102721.03;;;-6.11;85.48
74045;BME280;62389;51.412;5.436;2022-12-18T01:41:18;102725.16;;;-6.13;84.45
74045;BME280;62389;51.412;5.436;2022-12-18T01:43:48;102715.69;;;-6.15;84.65
74045;BME280;62389;51.412;5.436;2022-12-18T01:46:14;102725.81;;;-6.17;85.43
74045;BME280;62389;51.412;5.436;2022-12-18T01:48:40;102726.69;;;-6.16;84.81
74045;BME280;62389;51.412;5.436;2022-12-18T01:51:08;102717.38;;;-6.16;84.75
74045;BME280;62389;51.412;5.436;2022-12-18T01:53:36;102719.03;;;-6.16;84.89
74045;BME280;62389;51.412;5.436;2022-12-18T01:56:02;102707.00;;;-6.19;85.05
74045;BME280;62389;51.412;5.436;2022-12-18T01:58:44;102704.47;;;-6.19;84.94
74045;BME280;62389;51.412;5.436;2022-12-18T02:01:10;102711.16;;;-6.21;85.31
74045;BME280;62389;51.412;5.436;2022-12-18T02:03:36;102716.25;;;-6.21;85.13
74045;BME280;62389;51.412;5.436;2022-12-18T02:08:44;102710.03;;;-6.26;85.12
74045;BME280;62389;51.412;5.436;2022-12-18T02:16:39;102705.41;;;-6.48;85.13
74045;BME280;62389;51.412;5.436;2022-12-18T02:22:24;102705.06;;;-6.54;85.16
74045;BME280;62389;51.412;5.436;2022-12-18T02:27:33;102701.38;;;-6.59;85.24
74045;BME280;62389;51.412;5.436;2022-12-18T02:30:01;102709.75;;;-6.62;85.51
74045;BME280;62389;51.412;5.436;2022-12-18T02:32:31;102707.28;;;-6.60;85.16
74045;BME280;62389;51.412;5.436;2022-12-18T02:34:59;102701.56;;;-6.56;84.90
74045;BME280;62389;51.412;5.436;2022-12-18T02:37:27;102696.56;;;-6.55;84.52
74045;BME280;62389;51.412;5.436;2022-12-18T02:39:56;102694.72;;;-6.57;85.46
74045;BME280;62389;51.412;5.436;2022-12-18T02:42:22;102692.19;;;-6.57;85.06
74045;BME280;62389;51.412;5.436;2022-12-18T02:44:50;102693.94;;;-6.56;84.47
74045;BME280;62389;51.412;5.436;2022-12-18T02:47:18;102689.00;;;-6.53;85.62
74045;BME280;62389;51.412;5.436;2022-12-18T02:53:11;102675.50;;;-6.52;84.94
74045;BME280;62389;51.412;5.436;2022-12-18T02:58:35;102675.25;;;-6.57;85.30
74045;BME280;62389;51.412;5.436;2022-12-18T03:03:47;102676.13;;;-6.56;85.35
74045;BME280;62389;51.412;5.436;2022-12-18T03:06:21;102678.66;;;-6.56;85.66
74045;BME280;62389;51.412;5.436;2022-12-18T03:08:54;102673.56;;;-6.56;84.87
74045;BME280;62389;51.412;5.436;2022-12-18T03:11:21;102662.50;;;-6.57;84.98
74045;BME280;62389;51.412;5.436;2022-12-18T03:14:07;102663.22;;;-6.59;85.49
74045;BME280;62389;51.412;5.436;2022-12-18T03:16:34;102658.13;;;-6.59;85.65
74045;BME280;62389;51.412;5.436;2022-12-18T03:19:05;102649.69;;;-6.58;85.33
74045;BME280;62389;51.412;5.436;2022-12-18T03:21:37;102655.75;;;-6.56;86.10
74045;BME280;62389;51.412;5.436;2022-12-18T03:24:06;102654.88;;;-6.57;85.32
74045;BME280;62389;51.412;5.436;2022-12-18T03:26:33;102653.09;;;-6.58;85.30
74045;BME280;62389;51.412;5.436;2022-12-18T03:29:05;102650.56;;;-6.58;85.05
74045;BME280;62389;51.412;5.436;2022-12-18T03:31:32;102651.28;;;-6.60;85.39
74045;BME280;62389;51.412;5.436;2022-12-18T03:34:00;102662.34;;;-6.60;85.50
74045;BME280;62389;51.412;5.436;2022-12-18T03:36:26;102667.44;;;-6.60;84.83
74045;BME280;62389;51.412;5.436;2022-12-18T03:38:52;102667.34;;;-6.61;85.15
74045;BME280;62389;51.412;5.436;2022-12-18T03:41:50;102663.13;;;-6.61;85.88
74045;BME280;62389;51.412;5.436;2022-12-18T03:44:37;102673.38;;;-6.59;85.33
74045;BME280;62389;51.412;5.436;2022-12-18T03:47:17;102664.81;;;-6.61;85.25
74045;BME280;62389;51.412;5.436;2022-12-18T03:49:57;102665.59;;;-6.62;85.42
74045;BME280;62389;51.412;5.436;2022-12-18T03:54:55;102660.16;;;-6.68;85.23
74045;BME280;62389;51.412;5.436;2022-12-18T03:57:25;102650.63;;;-6.72;85.23
74045;BME280;62389;51.412;5.436;2022-12-18T03:59:55;102644.53;;;-6.74;85.12
74045;BME280;62389;51.412;5.436;2022-12-18T04:02:23;102635.84;;;-6.78;85.16
74045;BME280;62389;51.412;5.436;2022-12-18T04:04:52;102625.53;;;-6.81;85.15
74045;BME280;62389;51.412;5.436;2022-12-18T04:07:19;102620.44;;;-6.81;85.46
74045;BME280;62389;51.412;5.436;2022-12-18T04:09:47;102617.09;;;-6.80;85.76
74045;BME280;62389;51.412;5.436;2022-12-18T04:12:13;102612.00;;;-6.80;84.90
74045;BME280;62389;51.412;5.436;2022-12-18T04:14:38;102625.59;;;-6.80;85.80
74045;BME280;62389;51.412;5.436;2022-12-18T04:17:04;102609.38;;;-6.82;85.06
74045;BME280;62389;51.412;5.436;2022-12-18T04:19:29;102610.06;;;-6.84;85.28
74045;BME280;62389;51.412;5.436;2022-12-18T04:21:54;102608.41;;;-6.84;85.72
74045;BME280;62389;51.412;5.436;2022-12-18T04:24:20;102600.78;;;-6.84;86.01
74045;BME280;62389;51.412;5.436;2022-12-18T04:26:45;102603.25;;;-6.85;85.41
74045;BME280;62389;51.412;5.436;2022-12-18T04:29:11;102604.91;;;-6.86;85.70
74045;BME280;62389;51.412;5.436;2022-12-18T04:31:37;102621.84;;;-6.86;85.38
74045;BME280;62389;51.412;5.436;2022-12-18T04:34:03;102619.31;;;-6.86;85.27
74045;BME280;62389;51.412;5.436;2022-12-18T04:36:28;102619.84;;;-6.92;85.23
74045;BME280;62389;51.412;5.436;2022-12-18T04:38:54;102620.38;;;-6.97;84.59
74045;BME280;62389;51.412;5.436;2022-12-18T04:41:19;102621.06;;;-7.00;85.14
74045;BME280;62389;51.412;5.436;2022-12-18T04:43:45;102626.34;;;-6.97;85.27
74045;BME280;62389;51.412;5.436;2022-12-18T04:46:10;102628.09;;;-6.96;85.07
74045;BME280;62389;51.412;5.436;2022-12-18T04:48:36;102634.84;;;-6.96;85.49
74045;BME280;62389;51.412;5.436;2022-12-18T04:51:02;102633.72;;;-7.01;84.76
74045;BME280;62389;51.412;5.436;2022-12-18T04:53:28;102642.81;;;-7.05;84.53
74045;BME280;62389;51.412;5.436;2022-12-18T04:56:11;102648.00;;;-7.04;85.18
74045;BME280;62389;51.412;5.436;2022-12-18T04:58:38;102642.91;;;-7.04;84.88
74045;BME280;62389;51.412;5.436;2022-12-18T05:01:05;102648.88;;;-7.03;84.77
74045;BME280;62389;51.412;5.436;2022-12-18T05:03:30;102640.47;;;-7.02;85.29
74045;BME280;62389;51.412;5.436;2022-12-18T05:05:56;102642.38;;;-6.98;85.04
74045;BME280;62389;51.412;5.436;2022-12-18T05:08:21;102642.38;;;-6.98;84.42
74045;BME280;62389;51.412;5.436;2022-12-18T05:10:47;102638.88;;;-7.00;85.00
74045;BME280;62389;51.412;5.436;2022-12-18T05:13:12;102645.56;;;-7.02;84.61
74045;BME280;62389;51.412;5.436;2022-12-18T05:15:38;102643.63;;;-7.06;84.07
74045;BME280;62389;51.412;5.436;2022-12-18T05:18:03;102648.53;;;-7.09;84.44
74045;BME280;62389;51.412;5.436;2022-12-18T05:20:29;102649.31;;;-7.10;85.00
74045;BME280;62389;51.412;5.436;2022-12-18T05:22:55;102650.13;;;-7.11;84.77
74045;BME280;62389;51.412;5.436;2022-12-18T05:25:21;102646.59;;;-7.13;84.56
74045;BME280;62389;51.412;5.436;2022-12-18T05:27:47;102638.00;;;-7.15;84.62
74045;BME280;62389;51.412;5.436;2022-12-18T05:30:13;102648.19;;;-7.15;84.40
74045;BME280;62389;51.412;5.436;2022-12-18T05:32:39;102642.75;;;-7.21;83.85
74045;BME280;62389;51.412;5.436;2022-12-18T05:35:06;102642.41;;;-7.27;84.45
74045;BME280;62389;51.412;5.436;2022-12-18T05:37:32;102634.84;;;-7.26;84.50
74045;BME280;62389;51.412;5.436;2022-12-18T05:39:57;102628.91;;;-7.26;85.11
74045;BME280;62389;51.412;5.436;2022-12-18T05:42:23;102623.88;;;-7.25;84.74
74045;BME280;62389;51.412;5.436;2022-12-18T05:44:48;102611.25;;;-7.23;84.68
74045;BME280;62389;51.412;5.436;2022-12-18T05:47:14;102622.22;;;-7.24;84.71
74045;BME280;62389;51.412;5.436;2022-12-18T05:49:39;102623.00;;;-7.25;84.46
74045;BME280;62389;51.412;5.436;2022-12-18T05:52:04;102623.00;;;-7.25;84.82
74045;BME280;62389;51.412;5.436;2022-12-18T05:54:30;102622.16;;;-7.26;84.54
74045;BME280;62389;51.412;5.436;2022-12-18T05:56:56;102629.78;;;-7.26;85.11
74045;BME280;62389;51.412;5.436;2022-12-18T05:59:21;102620.47;;;-7.25;84.93
74045;BME280;62389;51.412;5.436;2022-12-18T06:01:47;102620.41;;;-7.27;84.96
74045;BME280;62389;51.412;5.436;2022-12-18T06:04:12;102616.19;;;-7.26;84.84
74045;BME280;62389;51.412;5.436;2022-12-18T06:06:38;102611.91;;;-7.27;84.64
74045;BME280;62389;51.412;5.436;2022-12-18T06:09:03;102607.41;;;-7.32;84.34
74045;BME280;62389;51.412;5.436;2022-12-18T06:11:35;102609.78;;;-7.35;85.38
74045;BME280;62389;51.412;5.436;2022-12-18T06:14:01;102615.66;;;-7.36;84.61
74045;BME280;62389;51.412;5.436;2022-12-18T06:16:27;102628.88;;;-7.41;84.51
74045;BME280;62389;51.412;5.436;2022-12-18T06:18:56;102631.25;;;-7.44;84.74
74045;BME280;62389;51.412;5.436;2022-12-18T06:21:22;102634.56;;;-7.45;84.34
74045;BME280;62389;51.412;5.436;2022-12-18T06:23:47;102633.44;;;-7.50;84.65
74045;BME280;62389;51.412;5.436;2022-12-18T06:26:13;102626.50;;;-7.53;84.85
74045;BME280;62389;51.412;5.436;2022-12-18T06:28:38;102628.16;;;-7.53;85.37
74045;BME280;62389;51.412;5.436;2022-12-18T06:31:04;102629.03;;;-7.53;85.50
74045;BME280;62389;51.412;5.436;2022-12-18T06:33:30;102628.44;;;-7.49;85.55
74045;BME280;62389;51.412;5.436;2022-12-18T06:36:07;102620.28;;;-7.43;85.29
74045;BME280;62389;51.412;5.436;2022-12-18T06:38:33;102623.81;;;-7.41;85.51
74045;BME280;62389;51.412;5.436;2022-12-18T06:40:59;102625.56;;;-7.40;85.18
74045;BME280;62389;51.412;5.436;2022-12-18T06:43:25;102622.06;;;-7.42;85.28
74045;BME280;62389;51.412;5.436;2022-12-18T06:45:50;102619.41;;;-7.44;84.98
74045;BME280;62389;51.412;5.436;2022-12-18T06:48:20;102621.00;;;-7.46;84.65
74045;BME280;62389;51.412;5.436;2022-12-18T06:50:46;102613.03;;;-7.52;84.80
74045;BME280;62389;51.412;5.436;2022-12-18T06:53:12;102610.38;;;-7.53;85.36
74045;BME280;62389;51.412;5.436;2022-12-18T06:55:37;102612.22;;;-7.51;85.50
74045;BME280;62389;51.412;5.436;2022-12-18T06:58:03;102612.41;;;-7.48;85.72
74045;BME280;62389;51.412;5.436;2022-12-18T07:00:28;102609.09;;;-7.47;85.10
74045;BME280;62389;51.412;5.436;2022-12-18T07:02:53;102615.63;;;-7.50;85.04
74045;BME280;62389;51.412;5.436;2022-12-18T07:05:19;102615.63;;;-7.50;85.26
74045;BME280;62389;51.412;5.436;2022-12-18T07:07:44;102613.19;;;-7.49;85.27
74045;BME280;62389;51.412;5.436;2022-12-18T07:10:10;102609.88;;;-7.48;85.28
74045;BME280;62389;51.412;5.436;2022-12-18T07:12:35;102599.00;;;-7.45;85.54
74045;BME280;62389;51.412;5.436;2022-12-18T07:15:01;102592.78;;;-7.50;84.61
74045;BME280;62389;51.412;5.436;2022-12-18T07:17:26;102593.09;;;-7.59;85.01
74045;BME280;62389;51.412;5.436;2022-12-18T07:19:52;102594.69;;;-7.61;85.32
74045;BME280;62389;51.412;5.436;2022-12-18T07:22:17;102572.78;;;-7.59;85.21
74045;BME280;62389;51.412;5.436;2022-12-18T07:24:42;102563.66;;;-7.56;85.68
74045;BME280;62389;51.412;5.436;2022-12-18T07:27:08;102548.50;;;-7.54;85.38
74045;BME280;62389;51.412;5.436;2022-12-18T07:29:33;102538.53;;;-7.51;85.45
74045;BME280;62389;51.412;5.436;2022-12-18T07:31:59;102542.81;;;-7.50;85.21
74045;BME280;62389;51.412;5.436;2022-12-18T07:34:24;102554.56;;;-7.52;85.02
74045;BME280;62389;51.412;5.436;2022-12-18T07:36:49;102546.84;;;-7.53;85.71
74045;BME280;62389;51.412;5.436;2022-12-18T07:39:15;102549.47;;;-7.52;85.25
74045;BME280;62389;51.412;5.436;2022-12-18T07:41:40;102540.19;;;-7.51;85.56
74045;BME280;62389;51.412;5.436;2022-12-18T07:44:11;102552.28;;;-7.47;85.94
74045;BME280;62389;51.412;5.436;2022-12-18T07:46:37;102536.41;;;-7.43;85.80
74045;BME280;62389;51.412;5.436;2022-12-18T07:49:03;102524.69;;;-7.41;85.79
74045;BME280;62389;51.412;5.436;2022-12-18T07:51:28;102521.41;;;-7.39;85.96
74045;BME280;62389;51.412;5.436;2022-12-18T07:53:53;102519.06;;;-7.36;85.81
74045;BME280;62389;51.412;5.436;2022-12-18T07:56:19;102520.97;;;-7.32;85.85
74045;BME280;62389;51.412;5.436;2022-12-18T07:58:45;102518.78;;;-7.25;85.96
74045;BME280;62389;51.412;5.436;2022-12-18T08:01:11;102504.66;;;-7.20;85.96
74045;BME280;62389;51.412;5.436;2022-12-18T08:03:37;102506.66;;;-7.15;85.94
74045;BME280;62389;51.412;5.436;2022-12-18T08:06:05;102507.84;;;-7.08;86.37
74045;BME280;62389;51.412;5.436;2022-12-18T08:08:32;102508.97;;;-7.03;86.11
74045;BME280;62389;51.412;5.436;2022-12-18T08:10:58;102518.72;;;-6.96;86.00
74045;BME280;62389;51.412;5.436;2022-12-18T08:13:24;102522.31;;;-6.92;86.21
74045;BME280;62389;51.412;5.436;2022-12-18T08:16:03;102518.41;;;-6.86;85.79
74045;BME280;62389;51.412;5.436;2022-12-18T08:18:32;102515.41;;;-6.79;85.82
74045;BME280;62389;51.412;5.436;2022-12-18T08:20:57;102513.09;;;-6.74;85.88
74045;BME280;62389;51.412;5.436;2022-12-18T08:23:22;102525.25;;;-6.68;86.02
74045;BME280;62389;51.412;5.436;2022-12-18T08:25:48;102532.34;;;-6.63;86.33
74045;BME280;62389;51.412;5.436;2022-12-18T08:28:13;102526.81;;;-6.56;85.81
74045;BME280;62389;51.412;5.436;2022-12-18T08:30:38;102520.34;;;-6.49;85.86
74045;BME280;62389;51.412;5.436;2022-12-18T08:33:04;102526.56;;;-6.44;86.20
74045;BME280;62389;51.412;5.436;2022-12-18T08:35:30;102531.91;;;-6.39;85.72
74045;BME280;62389;51.412;5.436;2022-12-18T08:37:55;102522.13;;;-6.32;85.93
74045;BME280;62389;51.412;5.436;2022-12-18T08:40:20;102516.38;;;-6.28;85.38
74045;BME280;62389;51.412;5.436;2022-12-18T08:42:46;102530.31;;;-6.21;85.36
74045;BME280;62389;51.412;5.436;2022-12-18T08:45:33;102512.00;;;-6.14;85.69
74045;BME280;62389;51.412;5.436;2022-12-18T08:47:58;102499.66;;;-6.06;85.56
74045;BME280;62389;51.412;5.436;2022-12-18T08:50:24;102494.00;;;-6.01;85.33
74045;BME280;62389;51.412;5.436;2022-12-18T08:52:49;102493.59;;;-5.92;85.25
74045;BME280;62389;51.412;5.436;2022-12-18T08:55:14;102498.22;;;-5.83;85.33
74045;BME280;62389;51.412;5.436;2022-12-18T08:57:40;102499.47;;;-5.75;85.69
74045;BME280;62389;51.412;5.436;2022-12-18T09:00:06;102492.38;;;-5.64;85.03
74045;BME280;62389;51.412;5.436;2022-12-18T09:02:31;102491.13;;;-5.55;84.93
74045;BME280;62389;51.412;5.436;2022-12-18T09:04:56;102492.28;;;-5.48;85.00
74045;BME280;62389;51.412;5.436;2022-12-18T09:07:22;102483.28;;;-5.41;85.01
74045;BME280;62389;51.412;5.436;2022-12-18T09:09:47;102499.69;;;-5.36;85.19
74045;BME280;62389;51.412;5.436;2022-12-18T09:12:12;102499.97;;;-5.30;84.58
74045;BME280;62389;51.412;5.436;2022-12-18T09:14:38;102505.28;;;-5.26;84.58
74045;BME280;62389;51.412;5.436;2022-12-18T09:17:03;102518.31;;;-5.19;84.58
74045;BME280;62389;51.412;5.436;2022-12-18T09:19:29;102521.16;;;-5.13;84.71
74045;BME280;62389;51.412;5.436;2022-12-18T09:21:54;102512.84;;;-5.09;84.58
74045;BME280;62389;51.412;5.436;2022-12-18T09:24:25;102505.41;;;-5.05;84.16
74045;BME280;62389;51.412;5.436;2022-12-18T09:26:53;102503.94;;;-5.00;84.83
74045;BME280;62389;51.412;5.436;2022-12-18T09:29:20;102505.91;;;-4.94;84.20
74045;BME280;62389;51.412;5.436;2022-12-18T09:31:45;102489.94;;;-4.90;84.56
74045;BME280;62389;51.412;5.436;2022-12-18T09:34:11;102477.38;;;-4.85;84.99
74045;BME280;62389;51.412;5.436;2022-12-18T09:36:37;102477.72;;;-4.78;85.11
74045;BME280;62389;51.412;5.436;2022-12-18T09:39:03;102476.34;;;-4.71;84.56
74045;BME280;62389;51.412;5.436;2022-12-18T09:41:39;102480.84;;;-4.65;84.20
74045;BME280;62389;51.412;5.436;2022-12-18T09:44:19;102485.19;;;-4.63;84.11
74045;BME280;62389;51.412;5.436;2022-12-18T09:49:39;102482.44;;;-4.48;84.25
74045;BME280;62389;51.412;5.436;2022-12-18T09:54:47;102463.53;;;-4.32;84.45
74045;BME280;62389;51.412;5.436;2022-12-18T09:57:23;102464.03;;;-4.22;84.26
74045;BME280;62389;51.412;5.436;2022-12-18T10:00:04;102459.22;;;-4.14;83.52
74045;BME280;62389;51.412;5.436;2022-12-18T10:02:31;102459.47;;;-4.08;83.57
74045;BME280;62389;51.412;5.436;2022-12-18T10:05:11;102469.09;;;-4.02;83.59
74045;BME280;62389;51.412;5.436;2022-12-18T10:07:40;102453.06;;;-3.98;83.70
74045;BME280;62389;51.412;5.436;2022-12-18T10:13:05;102457.69;;;-3.89;83.96
74045;BME280;62389;51.412;5.436;2022-12-18T10:15:51;102461.31;;;-3.84;83.72
74045;BME280;62389;51.412;5.436;2022-12-18T10:21:05;102459.19;;;-3.74;83.30
74045;BME280;62389;51.412;5.436;2022-12-18T10:26:09;102466.19;;;-3.70;83.54
74045;BME280;62389;51.412;5.436;2022-12-18T10:28:38;102454.47;;;-3.65;83.94
74045;BME280;62389;51.412;5.436;2022-12-18T10:31:15;102455.31;;;-3.64;83.24
74045;BME280;62389;51.412;5.436;2022-12-18T10:33:42;102448.47;;;-3.65;83.25
74045;BME280;62389;51.412;5.436;2022-12-18T10:36:08;102432.31;;;-3.64;83.15
74045;BME280;62389;51.412;5.436;2022-12-18T10:38:34;102416.19;;;-3.61;83.31
74045;BME280;62389;51.412;5.436;2022-12-18T10:41:05;102420.63;;;-3.57;83.40
74045;BME280;62389;51.412;5.436;2022-12-18T10:43:33;102404.53;;;-3.55;83.45
74045;BME280;62389;51.412;5.436;2022-12-18T10:51:00;102406.81;;;-3.40;83.41
74045;BME280;62389;51.412;5.436;2022-12-18T10:53:28;102413.69;;;-3.39;83.70
74045;BME280;62389;51.412;5.436;2022-12-18T10:55:56;102413.00;;;-3.35;83.25
74045;BME280;62389;51.412;5.436;2022-12-18T10:58:29;102408.75;;;-3.34;83.19
74045;BME280;62389;51.412;5.436;2022-12-18T11:01:16;102389.28;;;-3.31;83.72
74045;BME280;62389;51.412;5.436;2022-12-18T11:06:20;102379.25;;;-3.25;83.71
74045;BME280;62389;51.412;5.436;2022-12-18T11:09:05;102376.69;;;-3.25;83.51
74045;BME280;62389;51.412;5.436;2022-12-18T11:11:32;102373.19;;;-3.27;83.76
74045;BME280;62389;51.412;5.436;2022-12-18T11:14:06;102389.50;;;-3.25;83.60
74045;BME280;62389;51.412;5.436;2022-12-18T11:16:44;102385.38;;;-3.21;83.67
74045;BME280;62389;51.412;5.436;2022-12-18T11:21:43;102380.34;;;-3.18;83.81
74045;BME280;62389;51.412;5.436;2022-12-18T11:26:46;102366.97;;;-3.11;83.34
74045;BME280;62389;51.412;5.436;2022-12-18T11:29:23;102358.53;;;-3.08;83.83
74045;BME280;62389;51.412;5.436;2022-12-18T11:32:12;102354.31;;;-3.06;83.58
74045;BME280;62389;51.412;5.436;2022-12-18T11:34:48;102346.66;;;-3.06;83.74
74045;BME280;62389;51.412;5.436;2022-12-18T11:37:16;102348.47;;;-3.04;83.93
74045;BME280;62389;51.412;5.436;2022-12-18T11:40:09;102357.19;;;-2.99;83.96
74045;BME280;62389;51.412;5.436;2022-12-18T11:42:58;102359.13;;;-2.92;83.84
74045;BME280;62389;51.412;5.436;2022-12-18T11:45:33;102351.53;;;-2.90;83.04
74045;BME280;62389;51.412;5.436;2022-12-18T11:48:22;102353.25;;;-2.89;83.42
74045;BME280;62389;51.412;5.436;2022-12-18T11:50:52;102343.88;;;-2.89;83.70
74045;BME280;62389;51.412;5.436;2022-12-18T11:53:20;102349.16;;;-2.84;83.62
74045;BME280;62389;51.412;5.436;2022-12-18T11:59:05;102335.88;;;-2.74;83.65
74045;BME280;62389;51.412;5.436;2022-12-18T12:09:52;102316.75;;;-2.58;83.05
74045;BME280;62389;51.412;5.436;2022-12-18T12:18:17;102301.66;;;-2.50;83.09
74045;BME280;62389;51.412;5.436;2022-12-18T12:21:17;102302.53;;;-2.50;82.67
74045;BME280;62389;51.412;5.436;2022-12-18T12:26:57;102301.81;;;-2.46;82.41
74045;BME280;62389;51.412;5.436;2022-12-18T12:35:31;102282.44;;;-2.38;83.05
74045;BME280;62389;51.412;5.436;2022-12-18T12:38:14;102274.78;;;-2.36;82.69
74045;BME280;62389;51.412;5.436;2022-12-18T12:40:48;102266.34;;;-2.33;82.73
74045;BME280;62389;51.412;5.436;2022-12-18T12:43:46;102263.88;;;-2.30;82.78
74045;BME280;62389;51.412;5.436;2022-12-18T12:46:16;102259.78;;;-2.25;82.38
74045;BME280;62389;51.412;5.436;2022-12-18T12:48:55;102267.50;;;-2.24;82.19
74045;BME280;62389;51.412;5.436;2022-12-18T12:51:53;102258.94;;;-2.24;81.95
74045;BME280;62389;51.412;5.436;2022-12-18T12:54:24;102249.56;;;-2.24;81.33
74045;BME280;62389;51.412;5.436;2022-12-18T12:59:52;102247.91;;;-2.22;81.63
74045;BME280;62389;51.412;5.436;2022-12-18T13:02:33;102243.63;;;-2.21;81.47
74045;BME280;62389;51.412;5.436;2022-12-18T13:05:18;102239.41;;;-2.21;81.73
74045;BME280;62389;51.412;5.436;2022-12-18T13:07:57;102238.59;;;-2.20;81.97
74045;BME280;62389;51.412;5.436;2022-12-18T13:13:00;102234.31;;;-2.19;81.62
74045;BME280;62389;51.412;5.436;2022-12-18T13:20:35;102223.25;;;-2.18;81.96
74045;BME280;62389;51.412;5.436;2022-12-18T13:25:53;102217.13;;;-2.22;81.49
74045;BME280;62389;51.412;5.436;2022-12-18T13:32:00;102218.91;;;-2.21;81.09
74045;BME280;62389;51.412;5.436;2022-12-18T13:36:41;102220.63;;;-2.20;81.62
74045;BME280;62389;51.412;5.436;2022-12-18T13:41:34;102225.81;;;-2.18;81.40
74045;BME280;62389;51.412;5.436;2022-12-18T13:44:36;102208.72;;;-2.18;81.63
74045;BME280;62389;51.412;5.436;2022-12-18T13:47:03;102201.97;;;-2.16;82.11
74045;BME280;62389;51.412;5.436;2022-12-18T13:49:42;102203.69;;;-2.15;81.99
74045;BME280;62389;51.412;5.436;2022-12-18T13:52:24;102200.31;;;-2.14;81.76
74045;BME280;62389;51.412;5.436;2022-12-18T13:54:55;102197.75;;;-2.14;82.20
74045;BME280;62389;51.412;5.436;2022-12-18T13:57:28;102195.28;;;-2.11;81.17
74045;BME280;62389;51.412;5.436;2022-12-18T13:59:55;102184.25;;;-2.08;81.69
74045;BME280;62389;51.412;5.436;2022-12-18T14:02:23;102192.84;;;-2.06;81.26
74045;BME280;62389;51.412;5.436;2022-12-18T14:04:49;102200.59;;;-2.04;80.83
74045;BME280;62389;51.412;5.436;2022-12-18T14:07:21;102201.50;;;-2.02;81.48
74045;BME280;62389;51.412;5.436;2022-12-18T14:09:59;102198.06;;;-2.03;80.87
74045;BME280;62389;51.412;5.436;2022-12-18T14:12:28;102190.41;;;-2.01;80.77
74045;BME280;62389;51.412;5.436;2022-12-18T14:17:59;102200.66;;;-2.01;81.18
74045;BME280;62389;51.412;5.436;2022-12-18T14:20:26;102193.81;;;-2.02;80.81
74045;BME280;62389;51.412;5.436;2022-12-18T14:22:53;102187.84;;;-2.01;81.12
74045;BME280;62389;51.412;5.436;2022-12-18T14:25:24;102188.69;;;-2.02;81.04
74045;BME280;62389;51.412;5.436;2022-12-18T14:28:11;102193.81;;;-2.02;81.46
74045;BME280;62389;51.412;5.436;2022-12-18T14:30:42;102186.16;;;-2.01;81.17
74045;BME280;62389;51.412;5.436;2022-12-18T14:35:39;102190.41;;;-2.01;80.81
74045;BME280;62389;51.412;5.436;2022-12-18T14:38:20;102190.41;;;-2.01;80.75
74045;BME280;62389;51.412;5.436;2022-12-18T14:40:47;102185.28;;;-2.01;80.82
74045;BME280;62389;51.412;5.436;2022-12-18T14:43:16;102189.53;;;-2.02;80.98
74045;BME280;62389;51.412;5.436;2022-12-18T14:45:43;102196.41;;;-2.01;80.69